Time;durP1;ratioP1;P1;durP2;ratioP2;P2;SDS_P1;SDS_P2;PMS_P1;PMS_P2;Temp;Humidity;BMP_temperature;BMP_pressure;BME280_temperature;BME280_humidity;BME280_pressure;Samples;Min_cycle;Max_cycle;Signal;HPM_P1;HPM_P2
2022/03/27 00:02:09;;;;;;;16.70;5.50;;;;;;;6.83;66.58;101735.64;106143;1268;22532;-60
2022/03/27 00:04:41;;;;;;;17.00;4.40;;;;;;;6.78;66.31;101737.77;106042;1268;22544;-58
2022/03/27 00:07:12;;;;;;;16.50;4.40;;;;;;;6.74;65.48;101736.71;106102;1268;25300;-59
2022/03/27 00:09:44;;;;;;;15.20;3.30;;;;;;;6.68;65.06;101734.73;106572;1268;22570;-59
2022/03/27 00:12:15;;;;;;;13.50;3.00;;;;;;;6.62;64.57;101740.27;106318;1269;22519;-59
2022/03/27 00:14:48;;;;;;;13.00;2.80;;;;;;;6.50;63.73;101742.95;106358;1268;25286;-59
2022/03/27 00:17:19;;;;;;;17.60;3.00;;;;;;;6.43;63.62;101743.98;106144;1268;22524;-59
2022/03/27 00:19:51;;;;;;;13.50;2.60;;;;;;;6.36;62.89;101746.23;106112;1268;22529;-58
2022/03/27 00:22:22;;;;;;;10.30;1.90;;;;;;;6.29;62.74;101750.73;106207;1268;22532;-61
2022/03/27 00:24:54;;;;;;;12.60;2.00;;;;;;;6.24;62.21;101748.89;106288;1268;25229;-60
2022/03/27 00:27:25;;;;;;;9.90;1.60;;;;;;;6.18;61.74;101750.54;106039;1268;24405;-59
2022/03/27 00:29:56;;;;;;;9.00;1.30;;;;;;;6.14;61.74;101751.06;106131;1268;23225;-59
2022/03/27 00:32:28;;;;;;;11.20;1.60;;;;;;;6.10;61.63;101755.14;105915;1268;25455;-59
2022/03/27 00:35:00;;;;;;;9.50;1.60;;;;;;;6.06;61.22;101754.77;106154;1268;22531;-59
2022/03/27 00:37:33;;;;;;;7.10;1.60;;;;;;;6.01;60.98;101755.25;106039;1268;26671;-58
2022/03/27 00:40:06;;;;;;;8.40;1.20;;;;;;;5.98;61.04;101756.77;106345;1268;22544;-59
2022/03/27 00:42:37;;;;;;;8.40;1.20;;;;;;;5.93;60.23;101761.02;106150;1268;22634;-59
2022/03/27 00:45:10;;;;;;;7.00;1.00;;;;;;;5.89;59.83;101766.61;106204;1268;24356;-59
2022/03/27 00:47:43;;;;;;;10.50;1.60;;;;;;;5.83;59.14;101768.70;106202;1268;24720;-58
2022/03/27 00:50:15;;;;;;;8.80;1.20;;;;;;;5.75;58.77;101768.91;106120;1268;24287;-60
2022/03/27 00:52:47;;;;;;;9.70;1.10;;;;;;;5.68;58.62;101771.66;106145;1268;22548;-59
2022/03/27 00:55:19;;;;;;;10.10;1.50;;;;;;;5.63;58.66;101773.67;106073;1268;23195;-60
2022/03/27 00:57:50;;;;;;;8.50;1.10;;;;;;;5.58;57.68;101773.17;106004;1268;25355;-57
2022/03/27 01:00:43;;;;;;;6.50;1.20;;;;;;;5.49;57.58;101772.36;106210;1268;22532;-59
2022/03/27 01:03:18;;;;;;;9.80;1.50;;;;;;;5.42;57.58;101775.43;106214;1268;22746;-59
2022/03/27 01:05:50;;;;;;;11.20;1.80;;;;;;;5.34;57.29;101777.47;106279;1268;24218;-59
2022/03/27 01:11:15;;;;;;;8.40;1.50;;;;;;;5.18;56.84;101777.27;105890;1268;22542;-60
2022/03/27 01:13:51;;;;;;;5.60;1.10;;;;;;;5.12;56.53;101773.50;106176;1268;24421;-58
2022/03/27 01:16:37;;;;;;;9.90;1.50;;;;;;;5.09;56.80;101778.10;105900;1268;22649;-57
2022/03/27 01:19:11;;;;;;;11.70;1.50;;;;;;;5.06;56.50;101780.89;106302;1268;25495;-59
2022/03/27 01:21:46;;;;;;;8.80;1.10;;;;;;;5.02;56.50;101784.39;106085;1268;22567;-61
2022/03/27 01:24:20;;;;;;;8.50;1.10;;;;;;;4.99;56.79;101787.27;106275;1268;25535;-61
2022/03/27 01:26:52;;;;;;;7.40;1.30;;;;;;;4.96;56.55;101788.70;106225;1268;25407;-59
2022/03/27 01:29:24;;;;;;;9.20;1.70;;;;;;;4.91;56.55;101797.10;105883;1268;23176;-58
2022/03/27 01:31:56;;;;;;;11.10;1.40;;;;;;;4.85;56.58;101795.94;106015;1268;25290;-58
2022/03/27 01:34:28;;;;;;;11.50;1.60;;;;;;;4.80;56.62;101794.23;105839;1268;22514;-58
2022/03/27 01:37:05;;;;;;;10.40;1.60;;;;;;;4.75;56.61;101794.95;105885;1268;22545;-59
2022/03/27 01:39:37;;;;;;;8.10;1.40;;;;;;;4.69;56.56;101796.96;106188;1268;22531;-60
2022/03/27 01:42:10;;;;;;;14.00;1.30;;;;;;;4.60;56.53;101796.20;106201;1267;22534;-58
2022/03/27 01:44:42;;;;;;;10.40;1.80;;;;;;;4.53;56.98;101796.63;106265;1268;25429;-59
2022/03/27 01:47:13;;;;;;;10.20;1.50;;;;;;;4.48;57.23;101797.91;106066;1268;22772;-59
2022/03/27 01:49:46;;;;;;;11.50;2.00;;;;;;;4.46;57.22;101796.65;106051;1268;22610;-58
2022/03/27 01:52:18;;;;;;;7.60;1.10;;;;;;;4.42;56.93;101793.50;106095;1268;24527;-59
2022/03/27 01:54:50;;;;;;;9.70;1.50;;;;;;;4.38;56.67;101791.38;106303;1268;23552;-59
2022/03/27 01:57:21;;;;;;;9.00;1.30;;;;;;;4.34;56.72;101790.84;105994;1268;22547;-57
2022/03/27 01:59:53;;;;;;;10.60;1.30;;;;;;;4.30;56.90;101790.14;106015;1268;22525;-58
2022/03/27 02:02:26;;;;;;;9.90;1.90;;;;;;;4.26;56.87;101788.09;106007;1268;24427;-59
2022/03/27 02:04:57;;;;;;;8.10;1.50;;;;;;;4.21;57.01;101787.72;106274;1268;24288;-58
2022/03/27 02:07:36;;;;;;;9.90;1.60;;;;;;;4.17;56.98;101791.36;106165;1268;25340;-59
2022/03/27 02:10:10;;;;;;;11.90;1.20;;;;;;;4.11;57.08;101793.02;106089;1268;22556;-60
2022/03/27 02:12:41;;;;;;;9.30;1.40;;;;;;;4.07;57.06;101794.05;106113;1268;22528;-59
2022/03/27 02:15:13;;;;;;;9.00;1.20;;;;;;;4.04;57.06;101790.76;106051;1268;25784;-57
2022/03/27 02:17:45;;;;;;;9.20;2.10;;;;;;;3.99;57.17;101795.95;106108;1268;22620;-59
2022/03/27 02:20:17;;;;;;;9.30;1.10;;;;;;;3.95;57.19;101796.36;106116;1268;24131;-59
2022/03/27 02:22:48;;;;;;;9.80;1.40;;;;;;;3.90;57.05;101797.86;106286;1268;22615;-59
2022/03/27 02:25:20;;;;;;;9.20;1.50;;;;;;;3.85;56.99;101801.02;106181;1267;22532;-57
2022/03/27 02:27:52;;;;;;;13.40;1.80;;;;;;;3.78;56.85;101804.73;106096;1268;25410;-58
2022/03/27 02:30:24;;;;;;;11.80;2.10;;;;;;;3.69;56.97;101804.19;105579;1268;510927;-58
2022/03/27 02:32:56;;;;;;;5.80;1.20;;;;;;;3.64;57.13;101804.90;106158;1268;22691;-59
2022/03/27 02:35:27;;;;;;;9.30;1.50;;;;;;;3.60;57.04;101804.66;106104;1268;24317;-58
2022/03/27 02:37:59;;;;;;;6.30;1.30;;;;;;;3.54;56.92;101798.27;106149;1268;24272;-58
2022/03/27 02:40:31;;;;;;;8.90;1.90;;;;;;;3.48;57.14;101796.44;106069;1268;26565;-57
2022/03/27 02:43:02;;;;;;;9.20;1.30;;;;;;;3.43;57.16;101796.75;106100;1268;22524;-59
2022/03/27 02:45:34;;;;;;;10.20;1.80;;;;;;;3.38;57.26;101797.08;106246;1268;25497;-57
2022/03/27 02:48:08;;;;;;;10.60;1.60;;;;;;;3.32;57.24;101796.58;106222;1268;25286;-59
2022/03/27 02:50:43;;;;;;;8.70;1.50;;;;;;;3.26;57.23;101802.80;106031;1268;24248;-57
2022/03/27 02:53:15;;;;;;;8.90;1.50;;;;;;;3.21;57.16;101805.08;106197;1268;22493;-57
2022/03/27 02:55:46;;;;;;;14.30;1.70;;;;;;;3.16;57.30;101804.91;105984;1268;24342;-56
2022/03/27 02:58:18;;;;;;;8.70;1.90;;;;;;;3.12;57.47;101811.75;106227;1268;25394;-56
2022/03/27 03:00:51;;;;;;;11.60;2.00;;;;;;;3.08;57.36;101818.45;106145;1267;22577;-61
2022/03/27 03:03:22;;;;;;;13.80;2.10;;;;;;;3.02;57.49;101823.88;106131;1268;26609;-58
2022/03/27 03:05:55;;;;;;;11.50;2.50;;;;;;;2.95;57.51;101821.88;105943;1268;22667;-58
2022/03/27 03:08:34;;;;;;;12.90;2.00;;;;;;;2.89;57.48;101817.84;106493;1268;25930;-58
2022/03/27 03:11:06;;;;;;;11.80;2.20;;;;;;;2.85;57.77;101817.42;106153;1268;22565;-57
2022/03/27 03:13:38;;;;;;;13.80;1.90;;;;;;;2.82;57.79;101817.65;106374;1268;22605;-57
2022/03/27 03:16:10;;;;;;;9.50;1.80;;;;;;;2.78;57.81;101817.02;106271;1267;26732;-58
2022/03/27 03:18:43;;;;;;;12.20;2.20;;;;;;;2.73;57.87;101814.61;105992;1268;25405;-59
2022/03/27 03:21:16;;;;;;;11.00;2.20;;;;;;;2.68;57.89;101815.54;106142;1268;22540;-58
2022/03/27 03:23:47;;;;;;;14.30;2.50;;;;;;;2.63;57.88;101815.45;106132;1268;26689;-59
2022/03/27 03:26:19;;;;;;;15.20;2.10;;;;;;;2.59;58.03;101815.02;106219;1268;22566;-58
2022/03/27 03:28:51;;;;;;;15.90;2.40;;;;;;;2.55;58.06;101812.71;106219;1268;22544;-59
2022/03/27 03:31:22;;;;;;;13.80;2.80;;;;;;;2.51;58.14;101813.57;106275;1267;22551;-58
2022/03/27 03:33:54;;;;;;;14.90;3.20;;;;;;;2.46;58.05;101815.13;106015;1267;26692;-57
2022/03/27 03:36:26;;;;;;;15.30;3.70;;;;;;;2.42;58.18;101818.33;106069;1267;24408;-60
2022/03/27 03:38:57;;;;;;;16.40;2.80;;;;;;;2.36;57.96;101814.67;106178;1268;22543;-57
2022/03/27 03:41:29;;;;;;;12.70;2.10;;;;;;;2.29;58.20;101821.33;106185;1267;22556;-58
2022/03/27 03:44:01;;;;;;;13.90;3.30;;;;;;;2.25;58.19;101824.54;106120;1268;22538;-59
2022/03/27 03:46:32;;;;;;;11.60;3.00;;;;;;;2.20;58.30;101823.39;106205;1268;24541;-58
2022/03/27 03:49:06;;;;;;;18.60;5.80;;;;;;;2.16;58.42;101825.57;106077;1268;23966;-58
2022/03/27 03:51:38;;;;;;;19.20;5.40;;;;;;;2.11;58.35;101826.48;106143;1267;22608;-58
2022/03/27 03:54:10;;;;;;;16.60;6.00;;;;;;;2.05;58.55;101824.71;106134;1268;24205;-58
2022/03/27 03:56:41;;;;;;;22.60;7.20;;;;;;;2.02;58.55;101826.19;106120;1267;24217;-60
2022/03/27 03:59:12;;;;;;;21.50;8.20;;;;;;;1.98;58.60;101826.08;106436;1262;92060;-78
2022/03/27 04:01:43;;;;;;;25.30;6.70;;;;;;;1.94;58.60;101829.42;106804;1268;25793;-78
2022/03/27 04:04:16;;;;;;;18.00;5.80;;;;;;;1.91;58.67;101833.11;106832;1268;23386;-77
2022/03/27 04:06:47;;;;;;;16.40;5.00;;;;;;;1.87;58.71;101838.73;106912;1268;22638;-78
2022/03/27 04:09:20;;;;;;;18.00;5.40;;;;;;;1.83;58.67;101842.48;106944;1268;23824;-78
2022/03/27 04:11:51;;;;;;;14.50;4.00;;;;;;;1.80;58.75;101838.83;106899;1268;23309;-78
2022/03/27 04:14:23;;;;;;;17.70;4.80;;;;;;;1.76;58.78;101844.94;106845;1268;23069;-77
2022/03/27 04:16:55;;;;;;;15.90;4.20;;;;;;;1.72;58.88;101849.14;106735;1268;22570;-78
2022/03/27 04:19:27;;;;;;;18.00;5.30;;;;;;;1.64;58.82;101853.33;106980;1268;23885;-77
2022/03/27 04:21:58;;;;;;;15.00;3.90;;;;;;;1.58;58.93;101851.38;106784;1268;22563;-78
2022/03/27 04:24:29;;;;;;;18.10;5.20;;;;;;;1.52;59.18;101852.90;106740;1268;22556;-78
2022/03/27 04:27:00;;;;;;;19.60;5.50;;;;;;;1.46;59.18;101856.85;106713;1268;22605;-78
2022/03/27 04:29:31;;;;;;;16.30;3.90;;;;;;;1.40;59.29;101855.84;106736;1267;22604;-78
2022/03/27 04:32:03;;;;;;;17.30;3.60;;;;;;;1.34;59.43;101861.75;106798;1268;22651;-77
2022/03/27 04:34:34;;;;;;;16.40;3.00;;;;;;;1.30;59.38;101859.05;106830;1268;24236;-78
2022/03/27 04:37:06;;;;;;;13.70;2.90;;;;;;;1.29;59.22;101858.95;106861;1268;22617;-79
2022/03/27 04:39:37;;;;;;;16.30;3.40;;;;;;;1.27;59.25;101861.36;106736;1268;25327;-77
2022/03/27 04:42:10;;;;;;;17.50;4.00;;;;;;;1.23;59.32;101863.30;106682;1267;22593;-79
2022/03/27 04:44:41;;;;;;;14.90;3.70;;;;;;;1.20;59.33;101869.38;106934;1268;25314;-78
2022/03/27 04:47:12;;;;;;;15.90;4.20;;;;;;;1.18;59.45;101871.24;106929;1268;22681;-77
2022/03/27 04:49:43;;;;;;;18.30;4.50;;;;;;;1.19;59.44;101875.11;106919;1268;22863;-77
2022/03/27 04:52:14;;;;;;;21.90;4.10;;;;;;;1.20;59.58;101879.45;106669;1268;22681;-77
2022/03/27 04:54:46;;;;;;;25.40;6.30;;;;;;;1.20;59.61;101878.89;107783;1268;25313;-78
2022/03/27 04:57:17;;;;;;;19.80;5.70;;;;;;;1.18;59.49;101877.94;107110;1268;22534;-81
2022/03/27 04:59:50;;;;;;;18.00;4.70;;;;;;;1.15;59.56;101880.65;106831;1268;22522;-78
2022/03/27 05:02:23;;;;;;;21.70;5.40;;;;;;;1.13;59.57;101881.25;106780;1267;25249;-79
2022/03/27 05:04:54;;;;;;;19.60;5.00;;;;;;;1.11;59.81;101882.34;106695;1268;25237;-78
2022/03/27 05:07:25;;;;;;;20.40;5.30;;;;;;;1.07;59.75;101881.16;106656;1268;25307;-78
2022/03/27 05:09:55;;;;;;;17.40;5.10;;;;;;;1.04;59.81;101883.10;106530;1268;23017;-78
2022/03/27 05:12:27;;;;;;;23.60;6.20;;;;;;;1.00;60.00;101887.77;106591;1268;22583;-78
2022/03/27 05:14:58;;;;;;;17.50;5.20;;;;;;;0.93;60.06;101892.08;106635;1268;22795;-78
2022/03/27 05:17:29;;;;;;;18.60;4.00;;;;;;;0.86;60.03;101899.77;106660;1268;25432;-78
2022/03/27 05:20:02;;;;;;;17.80;4.20;;;;;;;0.78;60.13;101905.87;106618;1268;24459;-78
2022/03/27 05:22:33;;;;;;;17.70;3.80;;;;;;;0.69;60.18;101909.04;106605;1268;24283;-78
2022/03/27 05:25:05;;;;;;;18.70;4.20;;;;;;;0.63;60.34;101914.54;106609;1268;22550;-78
2022/03/27 05:27:42;;;;;;;20.00;3.90;;;;;;;0.62;60.41;101916.80;106747;1268;22680;-78
2022/03/27 05:30:13;;;;;;;13.70;2.60;;;;;;;0.63;60.49;101923.02;106574;1268;22532;-78
2022/03/27 05:32:44;;;;;;;14.30;3.10;;;;;;;0.65;60.51;101925.41;106601;1268;22547;-77
2022/03/27 05:35:16;;;;;;;15.70;2.90;;;;;;;0.68;60.61;101922.69;106589;1268;22538;-77
2022/03/27 05:37:49;;;;;;;16.00;3.90;;;;;;;0.69;60.54;101926.09;106629;1268;23692;-77
2022/03/27 05:40:21;;;;;;;19.60;4.20;;;;;;;0.70;60.70;101923.11;106647;1268;22563;-77
2022/03/27 05:42:53;;;;;;;16.00;2.70;;;;;;;0.71;60.84;101926.19;106532;1268;23196;-78
2022/03/27 05:45:25;;;;;;;12.30;2.40;;;;;;;0.74;60.89;101927.34;106572;1268;22616;-78
2022/03/27 05:47:56;;;;;;;15.00;3.30;;;;;;;0.77;60.97;101927.69;106611;1268;22697;-77
2022/03/27 05:50:27;;;;;;;14.50;3.50;;;;;;;0.82;61.01;101935.70;106675;1268;22524;-76
2022/03/27 05:52:59;;;;;;;19.60;3.60;;;;;;;0.86;61.26;101938.02;106551;1268;22556;-78
2022/03/27 05:55:31;;;;;;;20.30;3.50;;;;;;;0.89;61.17;101938.45;106630;1268;24384;-78
2022/03/27 05:58:02;;;;;;;17.10;3.60;;;;;;;0.88;61.14;101938.05;106766;1268;25561;-77
2022/03/27 06:00:33;;;;;;;17.30;3.20;;;;;;;0.85;61.20;101937.15;106672;1268;22587;-78
2022/03/27 06:03:05;;;;;;;20.30;5.10;;;;;;;0.86;61.36;101936.92;106758;1268;22966;-78
2022/03/27 06:05:37;;;;;;;20.30;5.70;;;;;;;0.88;61.36;101936.08;106747;1268;22657;-79
2022/03/27 06:08:09;;;;;;;26.50;5.10;;;;;;;0.91;61.45;101938.95;106648;1268;24316;-78
2022/03/27 06:10:41;;;;;;;21.30;6.00;;;;;;;0.94;61.64;101938.04;106761;1268;23302;-78
2022/03/27 06:13:13;;;;;;;21.60;5.70;;;;;;;0.97;61.54;101941.77;106796;1268;22559;-75
2022/03/27 06:15:45;;;;;;;22.60;5.40;;;;;;;1.00;61.81;101945.36;106909;1268;22664;-75
2022/03/27 06:18:16;;;;;;;19.80;4.00;;;;;;;1.02;62.15;101943.27;106907;1268;22532;-75
2022/03/27 06:20:47;;;;;;;23.00;6.10;;;;;;;1.06;62.15;101940.02;106736;1268;22567;-75
2022/03/27 06:23:18;;;;;;;23.10;5.00;;;;;;;1.11;62.26;101942.14;107031;1268;25343;-77
2022/03/27 06:25:49;;;;;;;23.70;6.00;;;;;;;1.17;62.43;101942.20;107114;1268;24237;-76
2022/03/27 06:28:20;;;;;;;26.40;5.00;;;;;;;1.26;62.25;101939.55;107070;1268;25676;-77
2022/03/27 06:30:51;;;;;;;17.50;3.80;;;;;;;1.34;62.23;101939.59;107077;1268;22649;-77
2022/03/27 06:33:22;;;;;;;18.70;4.20;;;;;;;1.44;62.40;101939.46;107047;1268;26062;-77
2022/03/27 06:35:53;;;;;;;15.10;2.80;;;;;;;1.54;62.03;101939.73;107037;1268;23528;-77
2022/03/27 06:38:26;;;;;;;19.90;3.30;;;;;;;1.66;61.71;101939.48;107106;1268;22662;-77
2022/03/27 06:40:57;;;;;;;20.50;3.30;;;;;;;1.78;61.49;101943.68;107056;1268;22600;-77
2022/03/27 06:43:28;;;;;;;16.50;3.40;;;;;;;1.90;61.42;101943.80;107051;1268;22547;-79
2022/03/27 06:45:59;;;;;;;15.00;2.90;;;;;;;2.01;61.34;101947.45;107097;1268;22665;-79
2022/03/27 06:48:30;;;;;;;15.10;2.60;;;;;;;2.13;61.14;101950.86;107069;1268;25565;-79
2022/03/27 06:51:04;;;;;;;16.60;4.50;;;;;;;2.25;61.02;101952.95;107124;1267;25559;-80
2022/03/27 06:53:35;;;;;;;15.20;4.30;;;;;;;2.37;60.93;101951.38;107126;1268;25210;-79
2022/03/27 06:56:07;;;;;;;16.10;3.70;;;;;;;2.48;60.79;101953.11;107087;1268;22555;-79
2022/03/27 06:58:38;;;;;;;19.80;6.40;;;;;;;2.60;60.51;101955.49;107023;1268;22542;-79
2022/03/27 07:03:58;;;;;;;12.90;5.10;;;;;;;2.83;60.12;101959.18;107045;1268;23319;-79
2022/03/27 07:06:30;;;;;;;14.30;3.80;;;;;;;2.94;59.74;101957.05;107003;1267;22704;-80
2022/03/27 07:09:04;;;;;;;11.20;1.80;;;;;;;3.06;59.54;101964.83;107106;1268;24112;-78
2022/03/27 07:11:36;;;;;;;7.40;1.60;;;;;;;3.16;59.25;101964.48;107131;1268;24502;-78
2022/03/27 07:14:07;;;;;;;11.20;2.70;;;;;;;3.27;58.87;101968.88;106956;1267;22572;-77
2022/03/27 07:16:39;;;;;;;10.20;1.60;;;;;;;3.36;58.53;101973.59;106930;1267;22575;-78
2022/03/27 07:19:21;;;;;;;8.80;1.40;;;;;;;3.48;58.44;101971.41;107223;1268;25913;-78
2022/03/27 07:21:59;;;;;;;6.40;1.30;;;;;;;3.58;58.17;101970.98;107163;1268;22690;-77
2022/03/27 07:24:31;;;;;;;9.60;1.30;;;;;;;3.70;57.76;101973.23;107147;1268;24270;-78
2022/03/27 07:27:04;;;;;;;6.60;0.90;;;;;;;3.83;57.53;101973.80;107213;1267;22545;-78
2022/03/27 07:29:37;;;;;;;5.70;0.90;;;;;;;4.04;56.76;101977.64;107095;1268;22549;-77
2022/03/27 07:32:11;;;;;;;8.90;0.90;;;;;;;4.20;56.40;101978.77;106891;1268;22527;-77
2022/03/27 07:34:42;;;;;;;7.70;0.80;;;;;;;4.35;56.21;101975.69;107019;1268;25534;-77
2022/03/27 07:37:13;;;;;;;6.70;0.80;;;;;;;4.49;55.93;101977.02;107000;1268;22702;-76
2022/03/27 07:39:45;;;;;;;4.80;0.60;;;;;;;4.61;55.71;101975.69;107451;1267;22618;-76
2022/03/27 07:42:18;;;;;;;9.50;0.90;;;;;;;4.74;55.19;101973.92;107314;1268;22535;-79
2022/03/27 07:44:50;;;;;;;7.20;1.00;;;;;;;4.84;55.13;101970.52;108038;1267;22577;-80
2022/03/27 07:47:21;;;;;;;10.80;1.20;;;;;;;4.94;54.42;101969.06;107382;1268;25366;-80
2022/03/27 07:49:53;;;;;;;7.40;0.90;;;;;;;5.03;54.36;101967.45;107156;1268;22543;-80
2022/03/27 07:52:26;;;;;;;7.30;0.90;;;;;;;5.15;53.74;101965.61;107416;1267;22830;-81
2022/03/27 07:55:03;;;;;;;9.80;1.40;;;;;;;5.23;53.59;101959.65;107994;1267;22554;-81
2022/03/27 07:57:40;;;;;;;9.70;1.60;;;;;;;5.33;53.31;101960.40;107891;1267;22531;-79
2022/03/27 08:00:14;;;;;;;7.80;0.90;;;;;;;5.46;53.40;101953.85;107147;1268;25260;-79
2022/03/27 08:02:46;;;;;;;7.50;0.90;;;;;;;5.60;52.82;101952.84;107669;1268;24291;-80
2022/03/27 08:05:18;;;;;;;4.80;0.70;;;;;;;5.72;52.61;101953.55;107801;1267;22581;-84
2022/03/27 08:07:50;;;;;;;6.80;0.90;;;;;;;5.84;52.25;101954.85;107899;1267;24120;-83
2022/03/27 08:10:21;;;;;;;7.40;0.90;;;;;;;5.98;51.98;101958.43;107913;1267;22556;-82
2022/03/27 08:13:05;;;;;;;6.50;1.10;;;;;;;6.11;51.43;101957.30;108071;1268;22552;-86
2022/03/27 08:15:44;;;;;;;6.70;1.10;;;;;;;6.23;51.21;101955.07;107922;1268;23922;-83
2022/03/27 08:18:16;;;;;;;6.60;1.10;;;;;;;6.31;50.95;101950.42;108018;1267;22625;-82
2022/03/27 08:20:48;;;;;;;7.10;1.30;;;;;;;6.37;50.90;101949.33;107932;1267;22535;-80
2022/03/27 08:23:20;;;;;;;8.30;1.60;;;;;;;6.42;50.80;101949.91;107490;1267;23960;-81
2022/03/27 08:28:40;;;;;;;8.00;0.90;;;;;;;6.59;50.51;101947.61;107451;1268;24224;-81
2022/03/27 08:31:11;;;;;;;9.80;1.20;;;;;;;6.66;50.31;101947.89;107882;1267;22581;-82
2022/03/27 08:33:43;;;;;;;7.80;1.30;;;;;;;6.76;50.10;101948.18;107970;1268;22528;-79
2022/03/27 08:36:26;;;;;;;6.10;1.10;;;;;;;6.82;49.40;101956.37;107493;1268;22687;-83
2022/03/27 08:38:58;;;;;;;4.60;0.80;;;;;;;6.85;49.47;101959.27;108521;1267;22562;-83
2022/03/27 08:41:31;;;;;;;7.70;0.70;;;;;;;6.95;48.94;101960.67;108583;1266;22535;-86
2022/03/27 08:44:03;;;;;;;6.60;1.10;;;;;;;7.04;48.79;101962.87;108610;1268;25408;-83
2022/03/27 08:46:38;;;;;;;7.00;1.00;;;;;;;7.09;48.92;101964.33;108626;1266;22506;-83
2022/03/27 08:49:20;;;;;;;5.90;0.90;;;;;;;7.14;48.30;101963.63;108548;1268;22550;-81
2022/03/27 08:52:03;;;;;;;11.10;1.20;;;;;;;7.24;48.17;101960.98;108560;1267;22528;-82
2022/03/27 08:54:40;;;;;;;5.50;0.90;;;;;;;7.31;47.57;101961.61;108573;1267;22684;-80
2022/03/27 08:57:23;;;;;;;4.60;0.80;;;;;;;7.43;47.00;101967.66;107752;1267;23198;-79
2022/03/27 08:59:56;;;;;;;5.80;0.70;;;;;;;7.50;46.98;101966.85;108170;1267;22729;-79
2022/03/27 09:02:28;;;;;;;3.70;0.70;;;;;;;7.54;46.75;101965.94;107655;1268;24967;-80
2022/03/27 09:05:00;;;;;;;5.10;0.80;;;;;;;7.57;46.43;101968.59;108544;1268;22675;-80
2022/03/27 09:07:32;;;;;;;5.00;0.60;;;;;;;7.65;46.40;101966.18;108577;1267;23014;-80
2022/03/27 09:10:10;;;;;;;5.40;0.90;;;;;;;7.71;46.34;101959.58;107472;1268;22521;-79
2022/03/27 09:12:43;;;;;;;4.60;0.80;;;;;;;7.81;45.87;101958.49;108453;1267;23523;-80
2022/03/27 09:15:19;;;;;;;4.60;0.90;;;;;;;7.88;45.50;101958.54;108619;1268;22571;-81
2022/03/27 09:18:09;;;;;;;7.40;1.00;;;;;;;7.96;45.41;101961.30;108605;1268;22638;-80
2022/03/27 09:20:53;;;;;;;9.00;0.90;;;;;;;8.04;45.49;101958.23;108584;1268;22573;-79
2022/03/27 09:23:30;;;;;;;7.70;1.00;;;;;;;8.11;45.22;101950.83;108510;1267;22570;-80
2022/03/27 09:26:04;;;;;;;6.50;0.90;;;;;;;8.16;44.77;101946.29;107824;1267;22707;-81
2022/03/27 09:28:40;;;;;;;4.40;0.70;;;;;;;8.27;44.70;101933.49;107669;1267;22614;-80
2022/03/27 09:31:28;;;;;;;4.50;0.80;;;;;;;8.39;44.06;101925.65;107661;1268;23835;-79
2022/03/27 09:34:00;;;;;;;4.80;0.70;;;;;;;8.53;44.57;101924.47;107646;1268;22576;-80
2022/03/27 09:36:34;;;;;;;9.20;0.90;;;;;;;8.59;44.14;101921.02;107690;1266;25402;-80
2022/03/27 09:39:09;;;;;;;3.40;0.80;;;;;;;8.63;43.71;101925.86;107706;1268;22577;-77
2022/03/27 09:41:46;;;;;;;7.70;1.10;;;;;;;8.63;43.43;101922.70;107366;1268;22524;-76
2022/03/27 09:44:20;;;;;;;7.30;0.90;;;;;;;8.67;43.54;101917.61;107319;1268;25301;-78
2022/03/27 09:47:00;;;;;;;5.60;0.80;;;;;;;8.73;43.37;101917.33;108344;1267;87001;-76
2022/03/27 09:49:46;;;;;;;7.70;1.20;;;;;;;8.80;43.18;101914.91;107181;1270;24249;-77
2022/03/27 09:52:20;;;;;;;5.60;0.70;;;;;;;8.87;42.94;101919.61;107166;1270;25317;-77
2022/03/27 09:54:55;;;;;;;7.60;1.00;;;;;;;8.94;42.31;101920.59;106897;1270;22525;-77
2022/03/27 09:57:28;;;;;;;6.10;1.10;;;;;;;8.96;42.56;101914.98;107354;1270;22568;-78
2022/03/27 10:00:14;;;;;;;3.90;1.00;;;;;;;9.01;42.48;101908.77;106951;1270;22525;-77
2022/03/27 10:02:46;;;;;;;5.30;0.80;;;;;;;9.06;42.04;101910.42;107131;1270;25407;-77
2022/03/27 10:05:39;;;;;;;5.60;0.80;;;;;;;9.10;41.93;101906.02;107061;1270;22545;-76
2022/03/27 10:08:25;;;;;;;8.80;0.70;;;;;;;9.15;41.92;101903.71;107061;1270;23301;-78
2022/03/27 10:11:00;;;;;;;6.00;0.70;;;;;;;9.17;41.84;101908.27;106977;1270;22581;-77
2022/03/27 10:13:36;;;;;;;5.20;0.80;;;;;;;9.22;41.58;101897.66;106972;1270;22804;-77
2022/03/27 10:16:11;;;;;;;8.70;0.70;;;;;;;9.26;41.63;101898.69;107498;1270;23019;-77
2022/03/27 10:18:44;;;;;;;4.70;0.90;;;;;;;9.34;41.53;101894.93;106937;1270;24179;-77
2022/03/27 10:21:16;;;;;;;6.20;0.60;;;;;;;9.38;41.04;101892.22;107134;1260;25240;-74
2022/03/27 10:23:51;;;;;;;5.80;0.60;;;;;;;9.42;40.77;101891.66;107137;1268;24293;-74
2022/03/27 10:26:24;;;;;;;6.20;0.80;;;;;;;9.42;40.17;101887.42;106827;1271;22561;-74
2022/03/27 10:28:56;;;;;;;6.20;0.80;;;;;;;9.41;40.45;101883.55;106841;1268;22589;-74
2022/03/27 10:31:30;;;;;;;6.00;0.80;;;;;;;9.50;40.53;101875.64;106820;1269;26513;-73
2022/03/27 10:34:03;;;;;;;7.40;1.00;;;;;;;9.53;40.46;101873.09;106736;1270;25293;-74
2022/03/27 10:36:46;;;;;;;4.30;0.70;;;;;;;9.57;40.57;101870.70;106791;1270;27338;-74
2022/03/27 10:39:28;;;;;;;3.60;0.60;;;;;;;9.65;40.67;101866.18;107202;1270;24401;-74
2022/03/27 10:42:10;;;;;;;5.60;0.80;;;;;;;9.77;40.42;101857.57;106716;1271;23942;-74
2022/03/27 10:44:45;;;;;;;6.40;0.80;;;;;;;9.82;40.51;101847.17;106634;1271;22987;-75
2022/03/27 10:47:19;;;;;;;4.00;0.70;;;;;;;9.84;40.22;101837.55;106581;1269;25273;-74
2022/03/27 10:50:30;;;;;;;6.20;0.70;;;;;;;9.88;40.22;101833.38;106678;1271;22843;-74
2022/03/27 10:53:12;;;;;;;6.00;0.90;;;;;;;10.01;40.46;101830.97;106050;1276;22791;-75
2022/03/27 10:55:45;;;;;;;4.30;0.60;;;;;;;10.14;40.38;101828.27;106310;1276;24428;-75
2022/03/27 10:58:37;;;;;;;3.80;0.80;;;;;;;10.20;40.10;101830.52;106577;1277;25541;-75
2022/03/27 11:01:10;;;;;;;4.50;0.80;;;;;;;10.20;39.63;101823.52;106649;1276;23421;-75
2022/03/27 11:03:52;;;;;;;6.10;1.00;;;;;;;10.19;39.76;101821.15;106003;1276;22954;-74
2022/03/27 11:06:25;;;;;;;5.80;0.80;;;;;;;10.27;40.20;101823.49;106221;1276;26649;-74
2022/03/27 11:08:59;;;;;;;3.70;0.50;;;;;;;10.39;39.83;101827.30;106233;1277;22644;-75
2022/03/27 11:11:57;;;;;;;7.10;0.70;;;;;;;10.47;39.42;101820.95;106259;1276;22652;-73
2022/03/27 11:14:55;;;;;;;4.40;0.70;;;;;;;10.53;39.13;101817.34;105928;1277;23419;-74
2022/03/27 11:17:44;;;;;;;4.60;0.80;;;;;;;10.49;38.79;101811.15;106114;1276;25477;-74
2022/03/27 11:20:53;;;;;;;4.00;0.70;;;;;;;10.46;38.98;101811.41;106015;1276;24260;-74
2022/03/27 11:23:38;;;;;;;3.60;0.60;;;;;;;10.49;39.11;101804.20;106083;1276;23152;-75
2022/03/27 11:26:37;;;;;;;7.10;0.70;;;;;;;10.54;39.01;101805.18;105948;1279;22538;-74
2022/03/27 11:29:23;;;;;;;5.60;0.60;;;;;;;10.58;39.00;101799.17;106047;1277;24281;-74
2022/03/27 11:32:11;;;;;;;4.10;0.70;;;;;;;10.61;38.74;101789.37;106644;1270;23864;-73
2022/03/27 11:34:42;;;;;;;6.80;0.70;;;;;;;10.61;39.02;101782.27;106596;1271;25347;-74
2022/03/27 11:37:22;;;;;;;3.80;0.80;;;;;;;10.64;38.92;101785.05;106564;1269;25354;-73
2022/03/27 11:39:55;;;;;;;5.70;0.70;;;;;;;10.70;38.87;101781.38;106594;1271;22675;-75
2022/03/27 11:42:35;;;;;;;6.10;0.80;;;;;;;10.74;38.84;101781.98;106830;1270;22544;-75
2022/03/27 11:45:17;;;;;;;4.70;0.40;;;;;;;10.80;38.60;101780.35;106582;1270;22627;-75
2022/03/27 11:47:51;;;;;;;5.60;0.70;;;;;;;10.86;38.81;101775.55;106649;1270;23132;-73
2022/03/27 11:50:29;;;;;;;5.00;0.70;;;;;;;10.92;38.81;101775.84;107706;1270;24249;-75
2022/03/27 11:53:02;;;;;;;3.20;0.60;;;;;;;10.97;38.28;101775.12;106726;1270;22550;-75
2022/03/27 11:55:35;;;;;;;4.10;0.70;;;;;;;11.01;38.21;101769.10;106643;1270;22553;-75
2022/03/27 11:58:11;;;;;;;6.70;0.90;;;;;;;11.06;38.13;101764.73;106822;1270;22591;-76
2022/03/27 12:00:44;;;;;;;3.40;0.70;;;;;;;11.08;38.25;101763.78;106696;1270;25389;-75
2022/03/27 12:03:22;;;;;;;5.70;0.70;;;;;;;11.07;38.10;101756.95;106947;1270;22616;-74